Time;durP1;ratioP1;P1;durP2;ratioP2;P2;SDS_P1;SDS_P2;PMS_P1;PMS_P2;Temp;Humidity;BMP_temperature;BMP_pressure;BME280_temperature;BME280_humidity;BME280_pressure;Samples;Min_cycle;Max_cycle;Signal;HPM_P1;HPM_P2
2020/12/10 00:00:53;;;;;;;30.13;17.67;;;3.60;99.90;;;;;;5065086;28;20028;-68
2020/12/10 00:03:18;;;;;;;30.05;15.82;;;3.60;99.90;;;;;;5070651;28;20035;-69
2020/12/10 00:05:44;;;;;;;31.88;17.05;;;3.60;99.90;;;;;;5076143;28;20396;-69
2020/12/10 00:08:09;;;;;;;36.03;16.92;;;3.60;99.90;;;;;;5061571;28;20020;-69
2020/12/10 00:10:35;;;;;;;28.15;17.35;;;3.60;99.90;;;;;;5075063;28;20026;-70
2020/12/10 00:13:01;;;;;;;32.05;15.98;;;3.60;99.90;;;;;;5067521;28;20047;-70
2020/12/10 00:15:26;;;;;;;31.15;16.98;;;3.60;99.90;;;;;;5080432;28;20494;-69
2020/12/10 00:17:52;;;;;;;34.88;18.20;;;3.60;99.90;;;;;;5064479;28;20041;-69
2020/12/10 00:20:18;;;;;;;26.73;16.05;;;3.60;99.90;;;;;;5070736;28;20021;-70
2020/12/10 00:22:44;;;;;;;33.42;16.20;;;3.60;99.90;;;;;;5067203;28;20040;-69
2020/12/10 00:25:09;;;;;;;31.05;16.33;;;3.60;99.90;;;;;;5061749;28;20049;-69
2020/12/10 00:27:35;;;;;;;34.53;15.98;;;3.60;99.90;;;;;;5060164;28;20476;-68
2020/12/10 00:30:06;;;;;;;30.00;15.70;;;3.70;99.90;;;;;;5064149;28;20028;-69
2020/12/10 00:32:32;;;;;;;27.15;15.15;;;3.70;99.90;;;;;;5066611;28;20481;-70
2020/12/10 00:34:58;;;;;;;30.27;16.30;;;3.70;99.90;;;;;;5060113;28;20032;-70
2020/12/10 00:37:26;;;;;;;30.60;15.40;;;3.70;99.90;;;;;;5064833;28;20041;-69
2020/12/10 00:39:52;;;;;;;28.30;15.65;;;3.70;99.90;;;;;;5062135;28;20041;-69
2020/12/10 00:42:18;;;;;;;26.58;15.65;;;3.70;99.90;;;;;;5058595;28;20037;-69
2020/12/10 00:44:43;;;;;;;22.70;13.73;;;3.70;99.90;;;;;;5061300;28;20174;-69
2020/12/10 00:47:09;;;;;;;23.70;13.82;;;3.70;99.90;;;;;;5069269;28;20494;-67
2020/12/10 00:49:35;;;;;;;26.17;15.32;;;3.70;99.90;;;;;;5079916;28;20024;-68
2020/12/10 00:52:00;;;;;;;24.02;13.63;;;3.70;99.90;;;;;;5068133;28;20032;-69
2020/12/10 00:54:26;;;;;;;24.50;14.30;;;3.70;99.90;;;;;;5067442;28;20495;-69
2020/12/10 00:56:51;;;;;;;24.23;14.73;;;3.70;99.90;;;;;;5065598;28;20439;-69
2020/12/10 00:59:17;;;;;;;29.58;15.23;;;3.70;99.90;;;;;;5065041;28;21868;-69
2020/12/10 01:01:43;;;;;;;19.85;14.18;;;3.70;99.90;;;;;;5067365;28;20025;-68
2020/12/10 01:04:11;;;;;;;25.80;14.02;;;3.70;99.90;;;;;;5070298;28;20555;-68
2020/12/10 01:06:36;;;;;;;24.52;13.80;;;3.70;99.90;;;;;;5069959;28;20419;-68
2020/12/10 01:09:06;;;;;;;25.48;14.27;;;3.70;99.90;;;;;;5078105;28;20028;-69
2020/12/10 01:11:31;;;;;;;22.88;13.45;;;3.70;99.90;;;;;;5061152;28;20358;-70
2020/12/10 01:13:57;;;;;;;23.50;13.77;;;3.70;99.90;;;;;;5070738;28;20036;-69
2020/12/10 01:16:23;;;;;;;18.83;12.45;;;3.60;99.90;;;;;;5066290;28;20069;-69
2020/12/10 01:18:49;;;;;;;20.48;12.93;;;3.70;99.90;;;;;;5062612;28;20037;-69
2020/12/10 01:21:15;;;;;;;22.30;13.18;;;3.70;99.90;;;;;;5063999;28;20024;-70
2020/12/10 01:23:41;;;;;;;21.38;12.98;;;3.70;99.90;;;;;;5068781;28;20048;-67
2020/12/10 01:26:10;;;;;;;19.42;12.98;;;3.70;99.90;;;;;;5080484;28;20086;-70
2020/12/10 01:28:36;;;;;;;28.73;12.97;;;3.70;99.90;;;;;;5067623;28;20047;-69
2020/12/10 01:31:02;;;;;;;21.42;13.65;;;3.70;99.90;;;;;;5060484;28;20037;-69
2020/12/10 01:33:27;;;;;;;20.13;12.20;;;3.70;99.90;;;;;;5076047;28;20492;-69
2020/12/10 01:35:53;;;;;;;22.52;13.13;;;3.70;99.90;;;;;;5063269;28;20551;-69
2020/12/10 01:38:18;;;;;;;19.02;12.07;;;3.70;99.90;;;;;;5077854;28;20555;-69
2020/12/10 01:40:51;;;;;;;21.02;12.05;;;3.70;99.90;;;;;;5073203;28;20122;-69
2020/12/10 01:43:16;;;;;;;21.73;12.10;;;3.70;99.90;;;;;;5071872;28;20028;-68
2020/12/10 01:45:42;;;;;;;20.10;12.30;;;3.70;99.90;;;;;;5067767;28;20557;-69
2020/12/10 01:48:07;;;;;;;23.48;12.70;;;3.70;99.90;;;;;;5064127;28;20119;-69
2020/12/10 01:50:33;;;;;;;19.70;11.60;;;3.60;99.90;;;;;;5065070;28;20036;-70
2020/12/10 01:52:59;;;;;;;20.50;11.65;;;3.60;99.90;;;;;;5073093;28;20081;-70
2020/12/10 01:55:24;;;;;;;18.48;12.15;;;3.60;99.90;;;;;;5086972;28;20493;-69
2020/12/10 01:57:50;;;;;;;19.20;12.25;;;3.60;99.90;;;;;;5069420;28;20034;-69
2020/12/10 02:00:15;;;;;;;18.92;10.48;;;3.60;99.90;;;;;;5067047;28;20021;-69
2020/12/10 02:02:41;;;;;;;21.08;11.13;;;3.60;99.90;;;;;;5073813;28;20043;-69
2020/12/10 02:05:06;;;;;;;18.30;11.23;;;3.60;99.90;;;;;;5072028;28;20025;-68
2020/12/10 02:07:32;;;;;;;20.83;11.32;;;3.60;99.90;;;;;;5068807;28;20409;-68
2020/12/10 02:09:57;;;;;;;20.50;10.95;;;3.60;99.90;;;;;;5066405;28;20048;-68
2020/12/10 02:12:23;;;;;;;19.52;11.52;;;3.60;99.90;;;;;;5062038;28;20032;-68
2020/12/10 02:14:48;;;;;;;18.50;10.85;;;3.60;99.90;;;;;;5066914;28;20016;-68
2020/12/10 02:17:14;;;;;;;17.23;10.95;;;3.60;99.90;;;;;;5074741;28;20345;-68
2020/12/10 02:19:39;;;;;;;20.42;11.20;;;3.60;99.90;;;;;;5064864;28;20359;-68
2020/12/10 02:22:05;;;;;;;17.33;10.70;;;3.60;99.90;;;;;;5061884;28;20135;-69
2020/12/10 02:24:31;;;;;;;18.67;10.85;;;3.60;99.90;;;;;;5061398;28;20132;-69
2020/12/10 02:26:58;;;;;;;16.25;10.25;;;3.60;99.90;;;;;;5074028;28;20028;-68
2020/12/10 02:29:23;;;;;;;15.88;10.82;;;3.60;99.90;;;;;;5075323;28;20047;-69
2020/12/10 02:31:49;;;;;;;17.40;10.38;;;3.60;99.90;;;;;;5068168;28;20099;-69
2020/12/10 02:34:15;;;;;;;17.73;10.10;;;3.60;99.90;;;;;;5060542;28;20054;-70
2020/12/10 02:36:43;;;;;;;14.38;9.90;;;3.60;99.90;;;;;;5064066;28;20032;-69
2020/12/10 02:39:09;;;;;;;17.70;10.88;;;3.50;99.90;;;;;;5070656;28;20072;-69
2020/12/10 02:41:38;;;;;;;14.65;10.68;;;3.60;99.90;;;;;;5066166;28;20083;-69
2020/12/10 02:44:05;;;;;;;18.48;10.35;;;3.60;99.90;;;;;;5059657;28;20021;-69
2020/12/10 02:46:31;;;;;;;16.10;10.02;;;3.50;99.90;;;;;;5065945;28;20437;-69
2020/12/10 02:48:57;;;;;;;16.70;10.50;;;3.50;99.90;;;;;;5073734;28;20024;-69
2020/12/10 02:51:23;;;;;;;16.52;10.18;;;3.50;99.90;;;;;;5059524;28;20119;-69
2020/12/10 02:53:48;;;;;;;19.70;10.52;;;3.60;99.90;;;;;;5060540;28;20054;-69
2020/12/10 02:56:15;;;;;;;16.05;9.75;;;3.60;99.90;;;;;;5059042;28;20441;-69
2020/12/10 02:58:41;;;;;;;17.08;10.75;;;3.60;99.90;;;;;;5062513;28;20041;-69
2020/12/10 03:01:08;;;;;;;14.48;9.35;;;3.50;99.90;;;;;;5062387;28;20039;-70
2020/12/10 03:03:34;;;;;;;17.50;10.13;;;3.50;99.90;;;;;;5060522;28;20036;-69
2020/12/10 03:06:00;;;;;;;20.40;10.20;;;3.50;99.90;;;;;;5060106;28;20028;-69
2020/12/10 03:08:26;;;;;;;14.90;10.38;;;3.50;99.90;;;;;;5060065;28;20033;-69
2020/12/10 03:10:53;;;;;;;16.23;11.07;;;3.50;99.90;;;;;;5063088;28;20021;-69
2020/12/10 03:13:20;;;;;;;16.30;9.82;;;3.50;99.90;;;;;;5065432;28;20052;-69
2020/12/10 03:15:45;;;;;;;21.85;10.88;;;3.50;99.90;;;;;;5054217;28;20029;-69
2020/12/10 03:18:12;;;;;;;21.52;11.57;;;3.60;99.90;;;;;;5064548;28;20027;-69
2020/12/10 03:20:38;;;;;;;19.35;11.05;;;3.50;99.90;;;;;;5060567;28;20040;-69
2020/12/10 03:23:04;;;;;;;15.20;10.10;;;3.50;99.90;;;;;;5065582;28;22177;-69
2020/12/10 03:25:30;;;;;;;17.45;10.88;;;3.50;99.90;;;;;;5066036;28;20148;-69
2020/12/10 03:27:55;;;;;;;17.08;10.32;;;3.50;99.90;;;;;;5068380;28;20020;-69
2020/12/10 03:30:21;;;;;;;18.02;10.35;;;3.50;99.90;;;;;;5063759;28;20032;-69
2020/12/10 03:32:47;;;;;;;19.95;11.02;;;3.50;99.90;;;;;;5059819;28;20119;-69
2020/12/10 03:35:12;;;;;;;20.80;10.77;;;3.50;99.90;;;;;;5060960;28;20029;-69
2020/12/10 03:37:38;;;;;;;17.42;10.90;;;3.50;99.90;;;;;;5058561;28;20139;-69
2020/12/10 03:40:05;;;;;;;14.90;9.88;;;3.40;99.90;;;;;;5064769;28;20028;-69
2020/12/10 03:42:31;;;;;;;19.08;11.82;;;3.40;99.90;;;;;;5059135;28;20556;-69
2020/12/10 03:44:56;;;;;;;18.65;10.25;;;3.50;99.90;;;;;;5063116;28;20123;-69
2020/12/10 03:47:22;;;;;;;17.73;10.88;;;3.50;99.90;;;;;;5061080;28;20099;-69
2020/12/10 03:49:47;;;;;;;21.08;12.10;;;3.40;99.90;;;;;;5067542;28;20039;-69
2020/12/10 03:52:13;;;;;;;16.67;10.98;;;3.40;99.90;;;;;;5058758;28;20024;-69
2020/12/10 03:54:39;;;;;;;13.30;9.55;;;3.40;99.90;;;;;;5067826;28;20024;-69
2020/12/10 03:57:04;;;;;;;19.85;10.93;;;3.40;99.90;;;;;;5056818;28;20433;-69
2020/12/10 03:59:30;;;;;;;17.52;10.15;;;3.40;99.90;;;;;;5062838;28;20068;-69
2020/12/10 04:01:56;;;;;;;15.18;10.15;;;3.30;99.90;;;;;;5063979;28;20469;-69
2020/12/10 04:04:22;;;;;;;19.52;12.15;;;3.30;99.90;;;;;;5062831;28;20161;-69
2020/12/10 04:06:48;;;;;;;20.10;12.10;;;3.30;99.90;;;;;;5061490;28;20040;-69
2020/12/10 04:09:13;;;;;;;23.75;13.13;;;3.20;99.90;;;;;;5058345;28;20028;-69
2020/12/10 04:11:39;;;;;;;23.55;12.40;;;3.20;99.90;;;;;;5060327;28;20491;-69
2020/12/10 04:14:06;;;;;;;25.50;13.95;;;3.20;99.90;;;;;;5059349;28;20554;-70
2020/12/10 04:16:32;;;;;;;23.08;12.73;;;3.10;99.90;;;;;;5070499;28;20021;-70
2020/12/10 04:18:57;;;;;;;20.23;13.23;;;3.10;99.90;;;;;;5059337;28;20521;-69
2020/12/10 04:21:23;;;;;;;22.33;11.98;;;3.00;99.90;;;;;;5060754;28;20592;-69
2020/12/10 04:23:49;;;;;;;22.45;13.75;;;3.00;99.90;;;;;;5066150;28;20071;-69
2020/12/10 04:26:15;;;;;;;20.25;12.35;;;2.90;99.90;;;;;;5060042;28;20043;-69
2020/12/10 04:28:42;;;;;;;25.52;13.70;;;2.90;99.90;;;;;;5068336;28;20392;-68
2020/12/10 04:31:07;;;;;;;23.30;12.75;;;2.80;99.90;;;;;;5059563;28;20027;-68
2020/12/10 04:33:33;;;;;;;22.77;13.02;;;2.70;99.90;;;;;;5069113;28;20029;-68
2020/12/10 04:35:59;;;;;;;25.73;14.18;;;2.70;99.90;;;;;;5070625;28;20021;-68
2020/12/10 04:38:24;;;;;;;23.08;13.18;;;2.70;99.90;;;;;;5066005;28;20124;-68
2020/12/10 04:40:50;;;;;;;22.10;12.55;;;2.60;99.90;;;;;;5060231;28;20029;-68
2020/12/10 04:43:16;;;;;;;24.55;13.07;;;2.50;99.90;;;;;;5067487;28;20523;-68
2020/12/10 04:45:42;;;;;;;26.20;12.77;;;2.50;99.90;;;;;;5068791;28;20431;-68
2020/12/10 04:48:08;;;;;;;25.13;14.02;;;2.40;99.90;;;;;;5069834;28;20024;-69
2020/12/10 04:50:37;;;;;;;23.33;13.27;;;2.30;99.90;;;;;;5073740;28;20025;-68
2020/12/10 04:53:03;;;;;;;24.15;13.02;;;2.20;99.90;;;;;;5066302;28;20036;-68
2020/12/10 04:55:30;;;;;;;26.27;13.70;;;2.20;99.90;;;;;;5062787;28;20029;-68
2020/12/10 04:57:58;;;;;;;22.60;12.63;;;2.10;99.90;;;;;;5065404;28;20044;-68
2020/12/10 05:00:25;;;;;;;27.48;12.27;;;2.10;99.90;;;;;;5066947;28;20123;-68
2020/12/10 05:02:50;;;;;;;24.52;12.95;;;2.00;99.90;;;;;;5063178;28;20028;-67
2020/12/10 05:05:26;;;;;;;20.95;12.68;;;1.90;99.90;;;;;;5065370;28;20024;-67
2020/12/10 05:07:53;;;;;;;24.45;12.55;;;1.90;99.90;;;;;;5062071;28;20035;-68
2020/12/10 05:10:18;;;;;;;22.55;12.60;;;1.80;99.90;;;;;;5061834;28;20391;-68
2020/12/10 05:12:46;;;;;;;20.67;12.15;;;1.70;99.90;;;;;;5069883;28;20024;-68
2020/12/10 05:15:12;;;;;;;22.38;13.68;;;1.60;99.90;;;;;;5066063;28;20062;-68
2020/12/10 05:17:38;;;;;;;26.27;13.10;;;1.60;99.90;;;;;;5063671;28;20025;-68
2020/12/10 05:20:07;;;;;;;25.88;13.85;;;1.60;99.90;;;;;;5070564;28;20038;-69
2020/12/10 05:22:33;;;;;;;24.20;13.35;;;1.50;99.90;;;;;;5063998;28;20039;-69
2020/12/10 05:25:00;;;;;;;33.42;13.90;;;1.50;99.90;;;;;;5061926;28;20067;-69
2020/12/10 05:27:27;;;;;;;22.40;12.82;;;1.70;99.90;;;;;;5062024;28;20391;-69
2020/12/10 05:29:52;;;;;;;22.20;12.65;;;1.40;99.90;;;;;;5064338;28;20021;-69
2020/12/10 05:32:38;;;;;;;23.92;14.30;;;1.40;99.90;;;;;;5063978;28;20028;-69
2020/12/10 05:35:12;;;;;;;20.95;12.63;;;1.30;99.90;;;;;;5059471;28;20032;-69
2020/12/10 05:37:38;;;;;;;25.10;13.05;;;1.30;99.90;;;;;;5062440;28;20099;-69
2020/12/10 05:40:03;;;;;;;22.17;12.27;;;1.30;99.90;;;;;;5067158;28;20119;-68
2020/12/10 05:42:41;;;;;;;25.00;13.18;;;1.40;99.90;;;;;;5062462;28;20148;-69
2020/12/10 05:45:15;;;;;;;23.17;12.98;;;1.30;99.90;;;;;;5065462;28;20024;-69
2020/12/10 05:47:59;;;;;;;25.20;13.13;;;1.30;99.90;;;;;;5064926;28;20044;-69
2020/12/10 05:50:30;;;;;;;27.33;12.85;;;1.30;99.90;;;;;;5058468;28;20515;-69
2020/12/10 05:53:04;;;;;;;20.27;12.05;;;1.40;99.90;;;;;;5062969;28;20051;-69
2020/12/10 05:55:30;;;;;;;21.63;12.35;;;1.40;99.90;;;;;;5066927;28;20047;-69
2020/12/10 05:57:56;;;;;;;21.00;12.63;;;1.30;99.90;;;;;;5063733;28;20035;-69
2020/12/10 06:00:22;;;;;;;22.77;12.77;;;1.40;99.90;;;;;;5067385;28;20060;-69
2020/12/10 06:02:49;;;;;;;25.67;12.93;;;1.40;99.90;;;;;;5065990;28;20055;-69
2020/12/10 06:05:14;;;;;;;25.38;13.38;;;1.40;99.90;;;;;;5064984;28;20070;-68
2020/12/10 06:07:57;;;;;;;21.65;13.50;;;1.40;99.90;;;;;;5058612;28;20116;-69
2020/12/10 06:10:23;;;;;;;25.95;12.73;;;1.40;99.90;;;;;;5060875;28;20032;-68
2020/12/10 06:12:51;;;;;;;24.58;12.27;;;1.30;99.90;;;;;;5062133;28;20063;-69
2020/12/10 06:15:22;;;;;;;24.92;12.07;;;1.30;99.90;;;;;;5066747;28;20055;-69
2020/12/10 06:18:08;;;;;;;24.83;13.10;;;1.30;99.90;;;;;;5062481;28;20028;-69
2020/12/10 06:20:35;;;;;;;22.45;11.93;;;1.30;99.90;;;;;;5060796;28;20033;-68
2020/12/10 06:23:23;;;;;;;24.45;12.10;;;1.20;99.90;;;;;;5068695;28;20074;-69
2020/12/10 06:25:53;;;;;;;22.60;12.50;;;1.20;99.90;;;;;;5069751;28;20048;-68
2020/12/10 06:28:21;;;;;;;20.60;12.13;;;1.10;99.90;;;;;;5080725;28;20020;-68
2020/12/10 06:31:02;;;;;;;29.73;13.02;;;1.10;99.90;;;;;;5084581;28;20369;-68
2020/12/10 06:33:42;;;;;;;24.40;12.73;;;1.10;99.90;;;;;;5083152;28;20496;-68
2020/12/10 06:36:21;;;;;;;24.58;13.23;;;1.10;99.90;;;;;;5087836;28;20031;-68
2020/12/10 06:38:47;;;;;;;24.08;13.27;;;1.10;99.90;;;;;;5083949;28;20020;-69
2020/12/10 06:41:13;;;;;;;23.42;13.57;;;1.00;99.90;;;;;;5086084;28;20027;-68
2020/12/10 06:43:38;;;;;;;25.98;14.27;;;1.00;99.90;;;;;;5083920;28;20078;-69
2020/12/10 06:46:04;;;;;;;23.48;13.38;;;1.00;99.90;;;;;;5078921;28;20028;-70
2020/12/10 06:48:44;;;;;;;24.10;13.60;;;1.00;99.90;;;;;;5073617;28;20108;-69
2020/12/10 06:51:10;;;;;;;23.77;14.68;;;1.00;99.90;;;;;;5078083;28;20059;-69
2020/12/10 06:53:36;;;;;;;33.03;13.13;;;1.00;99.90;;;;;;5079554;28;20031;-68
2020/12/10 06:56:05;;;;;;;24.98;13.43;;;1.00;99.90;;;;;;5076714;28;20480;-69
2020/12/10 06:58:41;;;;;;;26.65;13.40;;;1.10;99.90;;;;;;5080599;28;20497;-69
2020/12/10 07:01:26;;;;;;;21.33;13.35;;;1.10;99.90;;;;;;5078577;28;20047;-69
2020/12/10 07:04:07;;;;;;;26.67;13.07;;;1.10;99.90;;;;;;5080523;28;20140;-69
2020/12/10 07:06:33;;;;;;;26.90;13.48;;;1.10;99.90;;;;;;5075520;28;20498;-69
2020/12/10 07:09:09;;;;;;;25.15;12.73;;;1.10;99.90;;;;;;5086071;28;20024;-69
2020/12/10 07:11:40;;;;;;;24.10;13.20;;;1.10;99.90;;;;;;5071505;28;20031;-69
2020/12/10 07:14:25;;;;;;;23.25;12.88;;;1.10;99.90;;;;;;5078978;28;20028;-69
2020/12/10 07:16:52;;;;;;;25.45;12.75;;;1.10;99.90;;;;;;5080805;28;20036;-69
2020/12/10 07:19:18;;;;;;;26.10;13.48;;;1.10;99.90;;;;;;5072036;28;20036;-69
2020/12/10 07:21:44;;;;;;;25.17;13.68;;;1.20;99.90;;;;;;5079396;28;20027;-69
2020/12/10 07:24:10;;;;;;;20.98;12.13;;;1.30;99.90;;;;;;5080409;28;20044;-68
2020/12/10 07:26:36;;;;;;;26.48;12.98;;;1.20;99.90;;;;;;5076966;28;20043;-68
2020/12/10 07:29:02;;;;;;;22.75;13.82;;;1.20;99.90;;;;;;5080871;28;20028;-69
2020/12/10 07:31:27;;;;;;;20.88;12.38;;;1.30;99.90;;;;;;5076195;28;20438;-68
2020/12/10 07:33:56;;;;;;;19.33;11.77;;;1.30;99.90;;;;;;5086521;28;20044;-68
2020/12/10 07:36:23;;;;;;;22.65;12.43;;;1.30;99.90;;;;;;5077472;28;20476;-69
2020/12/10 07:38:49;;;;;;;20.90;12.57;;;1.40;99.90;;;;;;5081927;28;20138;-69
2020/12/10 07:41:15;;;;;;;20.25;11.63;;;1.40;99.90;;;;;;5078764;28;20020;-68
2020/12/10 07:43:48;;;;;;;22.40;13.18;;;1.50;99.90;;;;;;5081907;28;20337;-68
2020/12/10 07:46:14;;;;;;;22.60;12.40;;;1.40;99.90;;;;;;5077359;28;20048;-68
2020/12/10 07:48:40;;;;;;;25.15;12.30;;;1.40;99.90;;;;;;5056883;28;20040;-68
2020/12/10 07:51:06;;;;;;;20.98;12.20;;;1.50;99.90;;;;;;5068798;28;20028;-68
2020/12/10 07:53:32;;;;;;;24.15;12.38;;;1.50;99.90;;;;;;5065536;28;20032;-69
2020/12/10 07:56:01;;;;;;;22.42;13.25;;;1.50;99.90;;;;;;5078622;28;20333;-68
2020/12/10 07:58:57;;;;;;;18.75;11.48;;;1.50;99.90;;;;;;5074522;28;20089;-69
2020/12/10 08:01:24;;;;;;;22.98;12.05;;;1.40;99.90;;;;;;5083319;28;20480;-66
2020/12/10 08:03:49;;;;;;;19.75;11.93;;;1.40;99.90;;;;;;5073412;28;20032;-68
2020/12/10 08:06:16;;;;;;;21.17;11.95;;;1.30;99.90;;;;;;5076592;28;20027;-67
2020/12/10 08:08:57;;;;;;;18.15;11.70;;;1.30;99.90;;;;;;5078877;28;20064;-68
2020/12/10 08:11:23;;;;;;;19.35;11.80;;;1.30;99.90;;;;;;5069701;28;20093;-67
2020/12/10 08:14:09;;;;;;;28.20;12.18;;;1.30;99.90;;;;;;5077590;28;20055;-68
2020/12/10 08:16:36;;;;;;;20.75;11.20;;;1.30;99.90;;;;;;5074541;28;20028;-67
2020/12/10 08:19:14;;;;;;;21.38;11.50;;;1.30;99.90;;;;;;5072552;28;20033;-67
2020/12/10 08:21:40;;;;;;;23.48;12.30;;;1.40;99.90;;;;;;5082294;28;20023;-67
2020/12/10 08:24:06;;;;;;;20.38;11.68;;;1.30;99.90;;;;;;5074548;28;20060;-69
2020/12/10 08:26:31;;;;;;;21.20;11.88;;;1.40;99.90;;;;;;5071956;28;20016;-67
2020/12/10 08:28:57;;;;;;;26.02;11.43;;;1.40;99.90;;;;;;5068210;28;20432;-67
2020/12/10 08:31:28;;;;;;;22.05;11.63;;;1.40;99.90;;;;;;5051699;28;20377;-68
2020/12/10 08:33:54;;;;;;;;;;;1.30;99.90;;;;;;5057438;28;20024;-68
2020/12/10 08:36:24;;;;;;;19.35;11.15;;;1.30;99.90;;;;;;5069756;28;19935;-69
2020/12/10 08:38:51;;;;;;;24.52;12.73;;;1.30;99.90;;;;;;5063493;28;20044;-67
2020/12/10 08:41:24;;;;;;;20.42;11.98;;;1.30;99.90;;;;;;5068633;28;20020;-69
2020/12/10 08:43:54;;;;;;;17.75;10.63;;;1.30;99.90;;;;;;5059621;28;20077;-68
2020/12/10 08:46:19;;;;;;;16.60;11.40;;;1.30;99.90;;;;;;5055341;28;20102;-68
2020/12/10 08:48:45;;;;;;;21.80;12.38;;;1.40;99.90;;;;;;5060193;28;20662;-69
2020/12/10 08:51:11;;;;;;;22.65;12.70;;;1.30;99.90;;;;;;5058582;28;20025;-69
2020/12/10 08:53:45;;;;;;;19.80;11.68;;;1.40;99.90;;;;;;5059491;28;20029;-69
2020/12/10 08:56:21;;;;;;;19.95;12.13;;;1.40;99.90;;;;;;5052822;28;20021;-69
2020/12/10 08:58:47;;;;;;;23.15;12.25;;;1.50;99.90;;;;;;5065355;28;20036;-69
2020/12/10 09:01:14;;;;;;;16.92;11.40;;;1.50;99.90;;;;;;5050544;28;20428;-68
2020/12/10 09:03:40;;;;;;;21.15;12.60;;;1.60;99.90;;;;;;5062451;28;20029;-68
2020/12/10 09:06:05;;;;;;;18.60;11.32;;;1.60;99.90;;;;;;5084124;28;20025;-68
2020/12/10 09:08:31;;;;;;;19.80;11.68;;;1.70;99.90;;;;;;5073216;28;20028;-69
2020/12/10 09:10:56;;;;;;;23.42;12.20;;;1.80;99.90;;;;;;5073930;28;20082;-69
2020/12/10 09:13:25;;;;;;;22.95;11.55;;;1.80;99.90;;;;;;5073640;28;20066;-68
2020/12/10 09:15:51;;;;;;;20.10;11.35;;;1.90;99.90;;;;;;5072904;28;20044;-68
2020/12/10 09:18:16;;;;;;;20.13;11.45;;;1.90;99.90;;;;;;5073061;28;20465;-68
2020/12/10 09:20:42;;;;;;;18.33;11.10;;;1.90;99.90;;;;;;5089686;28;20085;-68
2020/12/10 09:23:12;;;;;;;21.60;11.90;;;1.90;99.90;;;;;;5094153;28;20460;-68
2020/12/10 09:25:40;;;;;;;20.88;11.48;;;2.00;99.90;;;;;;5094011;28;20189;-68
2020/12/10 09:28:08;;;;;;;21.38;11.02;;;2.00;99.90;;;;;;5093260;28;20020;-68
2020/12/10 09:30:33;;;;;;;20.70;11.38;;;2.00;99.90;;;;;;5083984;28;20041;-68
2020/12/10 09:32:59;;;;;;;24.77;12.43;;;2.00;99.90;;;;;;5085845;28;20025;-68
2020/12/10 09:35:25;;;;;;;21.75;11.57;;;2.00;99.90;;;;;;5072583;28;20111;-69
2020/12/10 09:37:50;;;;;;;14.93;10.60;;;2.10;99.90;;;;;;5089670;28;20025;-69
2020/12/10 09:40:16;;;;;;;21.80;12.50;;;2.10;99.90;;;;;;5086728;28;20059;-68
2020/12/10 09:42:44;;;;;;;22.23;11.60;;;2.20;99.90;;;;;;5088455;28;20043;-69
2020/12/10 09:45:10;;;;;;;19.27;11.75;;;2.20;99.90;;;;;;5086164;28;20034;-68
2020/12/10 09:47:35;;;;;;;20.75;11.77;;;2.20;99.90;;;;;;5091603;28;20095;-68
2020/12/10 09:50:03;;;;;;;18.67;12.55;;;2.20;99.90;;;;;;5090686;28;20024;-69
2020/12/10 09:52:29;;;;;;;22.33;12.45;;;2.20;99.90;;;;;;5093237;28;20024;-68
2020/12/10 09:57:31;;;;;;;18.00;11.35;;;2.30;99.90;;;;;;5092371;28;20051;-69
2020/12/10 10:00:03;;;;;;;20.17;11.70;;;2.30;99.90;;;;;;5093256;28;20562;-69
2020/12/10 10:02:29;;;;;;;26.15;13.35;;;2.30;99.90;;;;;;5092984;28;20388;-69
2020/12/10 10:04:54;;;;;;;18.90;11.55;;;2.40;99.90;;;;;;5092414;28;20016;-68
2020/12/10 10:07:20;;;;;;;23.30;12.30;;;2.40;99.90;;;;;;5077704;28;20104;-69
2020/12/10 10:09:46;;;;;;;20.73;13.85;;;2.40;99.90;;;;;;5072228;28;20025;-68
2020/12/10 10:12:13;;;;;;;22.15;11.38;;;2.40;99.90;;;;;;5075380;28;20484;-68
2020/12/10 10:14:39;;;;;;;18.98;11.52;;;2.50;99.90;;;;;;5070087;28;20030;-68
2020/12/10 10:17:06;;;;;;;17.98;12.15;;;2.50;99.90;;;;;;5071661;28;20024;-68
2020/12/10 10:19:31;;;;;;;23.13;12.55;;;2.50;99.90;;;;;;5062986;28;20116;-70
2020/12/10 10:21:57;;;;;;;18.85;11.30;;;2.60;99.90;;;;;;5059909;28;20529;-69
2020/12/10 10:24:24;;;;;;;18.80;11.35;;;2.60;99.90;;;;;;5074587;28;20143;-68
2020/12/10 10:26:49;;;;;;;20.38;11.90;;;2.70;99.90;;;;;;5083885;28;20054;-70
2020/12/10 10:29:20;;;;;;;23.75;12.80;;;2.60;99.90;;;;;;5089402;28;20464;-69
2020/12/10 10:31:47;;;;;;;22.15;13.40;;;2.70;99.90;;;;;;5082791;28;20031;-68
2020/12/10 10:34:12;;;;;;;21.30;13.00;;;2.70;99.90;;;;;;5078387;28;20039;-68
2020/12/10 10:36:38;;;;;;;21.33;13.45;;;2.70;99.90;;;;;;5077431;28;20534;-69
2020/12/10 10:39:03;;;;;;;24.00;13.13;;;2.70;99.90;;;;;;5086309;28;20480;-69
2020/12/10 10:41:29;;;;;;;21.08;12.68;;;2.80;99.90;;;;;;5079775;28;20116;-69
2020/12/10 10:43:55;;;;;;;20.10;12.18;;;2.80;99.90;;;;;;5062680;28;20454;-68
2020/12/10 10:46:20;;;;;;;19.60;12.73;;;2.80;99.90;;;;;;5052828;28;20382;-69
2020/12/10 10:48:46;;;;;;;17.55;11.07;;;2.80;99.90;;;;;;5056773;28;20036;-68
2020/12/10 10:51:12;;;;;;;18.55;10.98;;;2.90;99.90;;;;;;5061930;28;20090;-69
2020/12/10 10:53:40;;;;;;;25.80;12.93;;;2.90;99.90;;;;;;5057577;28;20481;-66
2020/12/10 10:56:06;;;;;;;25.42;13.00;;;2.90;99.90;;;;;;5054182;28;20029;-67
2020/12/10 10:58:32;;;;;;;22.08;13.10;;;3.00;99.90;;;;;;5070004;28;20035;-67
2020/12/10 11:00:57;;;;;;;22.77;12.90;;;3.00;99.90;;;;;;5065023;28;20056;-67
2020/12/10 11:03:23;;;;;;;24.60;13.35;;;3.10;99.90;;;;;;5063744;28;20031;-68
2020/12/10 11:05:49;;;;;;;19.70;12.50;;;3.10;99.90;;;;;;5058354;28;20043;-67
2020/12/10 11:08:14;;;;;;;24.70;13.63;;;3.20;99.90;;;;;;5059540;28;20028;-68
2020/12/10 11:10:40;;;;;;;24.17;13.32;;;3.10;99.90;;;;;;5075800;28;20073;-68
2020/12/10 11:13:05;;;;;;;23.20;13.57;;;3.20;99.90;;;;;;5071206;28;20029;-68
2020/12/10 11:15:31;;;;;;;23.55;14.25;;;3.20;99.90;;;;;;5059821;28;20033;-68
2020/12/10 11:17:57;;;;;;;27.75;14.10;;;3.20;99.90;;;;;;5063627;28;20033;-67
2020/12/10 11:20:23;;;;;;;25.85;14.57;;;3.30;99.90;;;;;;5081135;28;20068;-67
2020/12/10 11:22:48;;;;;;;27.40;15.02;;;3.30;99.90;;;;;;5077619;28;20099;-67
2020/12/10 11:25:14;;;;;;;21.80;12.93;;;3.30;99.90;;;;;;5059078;28;20224;-67
2020/12/10 11:27:39;;;;;;;22.67;14.00;;;3.30;99.90;;;;;;5063368;28;20551;-67
2020/12/10 11:30:06;;;;;;;21.77;13.18;;;3.40;99.90;;;;;;5071266;28;20044;-68
2020/12/10 11:32:32;;;;;;;20.92;12.75;;;3.40;99.90;;;;;;5059136;28;20044;-68
2020/12/10 11:34:57;;;;;;;23.67;14.05;;;3.40;99.90;;;;;;5058792;28;20046;-68
2020/12/10 11:37:23;;;;;;;25.77;14.48;;;3.50;99.90;;;;;;5063904;28;20108;-68
2020/12/10 11:39:48;;;;;;;21.27;13.65;;;3.50;99.90;;;;;;5058377;28;20037;-68
2020/12/10 11:42:14;;;;;;;22.23;13.55;;;3.50;99.90;;;;;;5055713;28;20040;-68
2020/12/10 11:44:41;;;;;;;23.85;13.55;;;3.60;99.90;;;;;;5060201;28;20037;-68
2020/12/10 11:47:07;;;;;;;25.15;15.00;;;3.60;99.90;;;;;;5065215;28;20129;-68
2020/12/10 11:49:33;;;;;;;29.00;14.38;;;3.60;99.90;;;;;;5061307;28;20033;-67
2020/12/10 11:51:59;;;;;;;22.13;13.43;;;3.70;99.90;;;;;;5064282;28;20085;-68
2020/12/10 11:54:24;;;;;;;25.88;14.38;;;3.80;99.90;;;;;;5061175;28;20043;-68
2020/12/10 11:56:56;;;;;;;20.52;13.57;;;3.80;99.90;;;;;;5066156;28;20024;-68
2020/12/10 11:59:23;;;;;;;18.55;13.15;;;3.80;99.90;;;;;;5054992;28;20127;-67
2020/12/10 12:01:49;;;;;;;21.98;13.85;;;3.80;99.90;;;;;;5065500;28;20025;-67
2020/12/10 12:04:14;;;;;;;26.15;14.48;;;3.80;99.90;;;;;;5065145;28;20036;-67
2020/12/10 12:06:40;;;;;;;23.73;13.43;;;3.80;99.90;;;;;;5054725;28;20032;-67
2020/12/10 12:09:05;;;;;;;26.48;13.68;;;3.90;99.90;;;;;;5077032;28;20353;-68
2020/12/10 12:11:31;;;;;;;22.30;13.80;;;3.90;99.90;;;;;;5075368;28;20021;-68
2020/12/10 12:13:56;;;;;;;23.42;13.57;;;3.90;99.90;;;;;;5072763;28;20043;-68
2020/12/10 12:16:22;;;;;;;24.33;13.57;;;4.00;99.90;;;;;;5060098;28;20051;-68
2020/12/10 12:18:49;;;;;;;20.75;13.60;;;4.00;99.90;;;;;;5064990;28;20047;-69
2020/12/10 12:21:27;;;;;;;24.80;14.55;;;4.00;99.90;;;;;;5084171;28;20016;-68
2020/12/10 12:23:53;;;;;;;22.60;13.35;;;4.10;99.90;;;;;;5054718;28;20068;-68
2020/12/10 12:26:27;;;;;;;22.20;12.68;;;4.10;99.90;;;;;;5055581;28;20040;-68
2020/12/10 12:28:52;;;;;;;20.23;13.02;;;4.10;99.90;;;;;;5075197;28;20031;-67
2020/12/10 12:31:18;;;;;;;21.02;14.10;;;4.10;99.90;;;;;;5078142;28;20039;-67
2020/12/10 12:33:43;;;;;;;20.38;12.07;;;4.10;99.90;;;;;;5073378;28;20021;-67
2020/12/10 12:36:10;;;;;;;21.65;13.05;;;4.10;99.90;;;;;;5081579;28;20056;-67
2020/12/10 12:38:36;;;;;;;22.23;14.10;;;4.20;99.90;;;;;;5059141;28;20111;-68
2020/12/10 12:41:02;;;;;;;25.23;13.93;;;4.30;99.90;;;;;;5054995;28;20162;-68